createdAt,value
2023-05-14T00:01:51.330Z,5.21
2023-05-14T00:04:03.590Z,5.2
2023-05-14T00:06:18.597Z,5.25
2023-05-14T00:08:29.545Z,5.25
2023-05-14T00:10:41.657Z,5.24
2023-05-14T00:12:52.959Z,5.21
2023-05-14T00:15:05.188Z,5.15
2023-05-14T00:17:15.996Z,5.14
2023-05-14T00:19:27.578Z,5.12
2023-05-14T00:21:40.616Z,5.08
2023-05-14T00:23:51.771Z,5.03
2023-05-14T00:26:02.703Z,5
2023-05-14T00:28:14.339Z,4.94
2023-05-14T00:30:26.177Z,4.92
2023-05-14T00:32:38.205Z,4.93
2023-05-14T00:34:51.293Z,4.91
2023-05-14T00:37:02.253Z,4.91
2023-05-14T00:39:13.918Z,4.89
2023-05-14T00:41:25.118Z,4.83
2023-05-14T00:43:35.617Z,4.77
2023-05-14T00:45:48.977Z,4.67
2023-05-14T00:48:01.164Z,4.66
2023-05-14T00:50:11.918Z,4.66
2023-05-14T00:52:22.505Z,4.66
2023-05-14T00:54:34.956Z,4.67
2023-05-14T00:56:49.877Z,4.8
2023-05-14T00:59:11.662Z,4.86
2023-05-14T01:01:24.294Z,4.79
2023-05-14T01:03:36.469Z,4.73
2023-05-14T01:05:49.094Z,4.68
2023-05-14T01:08:00.594Z,4.66
2023-05-14T01:10:11.072Z,4.6
2023-05-14T01:12:22.273Z,4.56
2023-05-14T01:14:33.732Z,4.53
2023-05-14T01:16:45.599Z,4.49
2023-05-14T01:18:58.439Z,4.43
2023-05-14T01:21:11.793Z,4.42
2023-05-14T01:23:23.055Z,4.38
2023-05-14T01:25:36.198Z,4.31
2023-05-14T01:27:50.156Z,4.27
2023-05-14T01:30:06.125Z,4.24
2023-05-14T01:32:17.692Z,4.17
2023-05-14T01:34:28.320Z,4.17
2023-05-14T01:36:41.441Z,4.11
2023-05-14T01:41:20.476Z,3.98
2023-05-14T01:43:30.953Z,3.99
2023-05-14T01:45:42.139Z,4.08
2023-05-14T01:47:55.791Z,4.11
2023-05-14T01:50:08.777Z,4.08
2023-05-14T01:52:19.773Z,4.06
2023-05-14T01:54:32.851Z,4.07
2023-05-14T01:56:44.471Z,4.08
2023-05-14T01:58:55.777Z,4.04
2023-05-14T02:01:10.704Z,3.97
2023-05-14T02:03:22.092Z,3.93
2023-05-14T02:05:33.354Z,3.94
2023-05-14T02:07:45.994Z,3.91
2023-05-14T02:09:59.292Z,3.94
2023-05-14T02:12:11.397Z,4.01
2023-05-14T02:14:23.854Z,3.95
2023-05-14T02:16:35.055Z,3.89
2023-05-14T02:18:46.761Z,3.9
2023-05-14T02:20:59.290Z,3.88
2023-05-14T02:23:11.755Z,3.84
2023-05-14T02:25:26.388Z,3.79
2023-05-14T02:27:38.814Z,3.79
2023-05-14T02:29:50.886Z,3.77
2023-05-14T02:32:05.508Z,3.76
2023-05-14T02:34:16.694Z,3.68
2023-05-14T02:36:28.033Z,3.66
2023-05-14T02:38:39.120Z,3.61
2023-05-14T02:40:50.942Z,3.55
2023-05-14T02:43:02.657Z,3.51
2023-05-14T02:45:14.502Z,3.54
2023-05-14T02:47:25.179Z,3.61
2023-05-14T02:49:36.974Z,3.65
2023-05-14T02:51:52.812Z,3.67
2023-05-14T02:54:05.194Z,3.66
2023-05-14T02:56:17.996Z,3.6
2023-05-14T02:58:31.518Z,3.52
2023-05-14T03:00:43.460Z,3.54
2023-05-14T03:02:57.932Z,3.58
2023-05-14T03:05:14.278Z,3.63
2023-05-14T03:07:26.175Z,3.68
2023-05-14T03:09:38.534Z,3.63
2023-05-14T03:11:49.294Z,3.63
2023-05-14T03:14:01.998Z,3.6
2023-05-14T03:16:14.069Z,3.6
2023-05-14T03:18:27.981Z,3.62
2023-05-14T03:20:40.600Z,3.67
2023-05-14T03:22:53.399Z,3.69
2023-05-14T03:25:06.396Z,3.72
2023-05-14T03:27:17.881Z,3.72
2023-05-14T03:29:30.792Z,3.77
2023-05-14T03:31:42.716Z,3.81
2023-05-14T03:33:54.235Z,3.84
2023-05-14T03:36:09.300Z,3.92
2023-05-14T03:38:21.435Z,3.96
2023-05-14T03:40:34.754Z,3.99
2023-05-14T03:42:46.037Z,4.09
2023-05-14T03:44:58.624Z,4.11
2023-05-14T03:47:12.541Z,4.17
2023-05-14T03:49:24.237Z,4.24
2023-05-14T03:51:35.337Z,4.3
2023-05-14T03:53:50.019Z,4.39
2023-05-14T03:56:03.875Z,4.51
2023-05-14T03:58:17.794Z,4.61
2023-05-14T04:00:31.473Z,4.62
2023-05-14T04:02:44.673Z,4.66
2023-05-14T04:04:57.246Z,4.71
2023-05-14T04:07:10.819Z,4.79
2023-05-14T04:09:22.293Z,4.88
2023-05-14T04:11:35.054Z,4.98
2023-05-14T04:13:47.219Z,5.1
2023-05-14T04:15:58.970Z,5.28
2023-05-14T04:18:11.472Z,5.45
2023-05-14T04:20:26.060Z,5.51
2023-05-14T04:22:40.164Z,5.62
2023-05-14T04:24:52.737Z,5.71
2023-05-14T04:27:06.096Z,5.84
2023-05-14T04:29:18.685Z,6
2023-05-14T04:31:32.484Z,6.17
2023-05-14T04:33:44.637Z,6.3
2023-05-14T04:35:56.958Z,6.46
2023-05-14T04:38:09.461Z,6.61
2023-05-14T04:40:21.230Z,6.67
2023-05-14T04:42:35.961Z,6.8
2023-05-14T04:44:48.288Z,7.03
2023-05-14T04:47:02.788Z,7.2
2023-05-14T04:49:16.167Z,7.43
2023-05-14T04:51:28.993Z,7.61
2023-05-14T04:53:42.608Z,7.87
2023-05-14T04:55:54.669Z,8.06
2023-05-14T04:58:07.980Z,8.28
2023-05-14T05:00:21.667Z,8.46
2023-05-14T05:02:35.242Z,8.73
2023-05-14T05:04:47.420Z,8.94
2023-05-14T05:07:04.230Z,9.25
2023-05-14T05:09:15.355Z,9.52
2023-05-14T05:11:30.841Z,9.67
2023-05-14T05:13:43.458Z,9.75
2023-05-14T05:15:55.962Z,9.99
2023-05-14T05:18:08.839Z,10.26
2023-05-14T05:20:22.193Z,10.57
2023-05-14T05:22:34.235Z,10.72
2023-05-14T05:24:50.138Z,11.02
2023-05-14T05:27:04.416Z,11.21
2023-05-14T05:29:15.796Z,11.38
2023-05-14T05:31:33.406Z,11.58
2023-05-14T05:33:45.399Z,11.5
2023-05-14T05:35:58.353Z,11.68
2023-05-14T05:38:09.696Z,12.05
2023-05-14T05:40:21.977Z,12.19
2023-05-14T05:42:34.051Z,12.13
2023-05-14T05:44:47.203Z,12.19
2023-05-14T05:46:58.439Z,12.28
2023-05-14T05:49:09.872Z,12.48
2023-05-14T05:51:20.731Z,12.64
2023-05-14T05:53:33.996Z,12.96
2023-05-14T05:55:44.841Z,13.23
2023-05-14T05:57:58.573Z,13.36
2023-05-14T06:00:11.491Z,13.53
2023-05-14T06:02:23.062Z,13.53
2023-05-14T06:04:35.312Z,13.66
2023-05-14T06:06:48.457Z,13.72
2023-05-14T06:08:58.354Z,13.89
2023-05-14T06:11:08.592Z,14.09
2023-05-14T06:13:19.231Z,14.27
2023-05-14T06:15:41.614Z,14.45
2023-05-14T06:17:56.780Z,14.6
2023-05-14T06:20:10.234Z,14.65
2023-05-14T06:22:24.118Z,14.88
2023-05-14T06:24:37.713Z,15.08
2023-05-14T06:29:17.312Z,15.29
2023-05-14T06:31:31.285Z,15.48
2023-05-14T06:33:45.049Z,15.55
2023-05-14T06:35:56.854Z,15.7
2023-05-14T06:38:10.041Z,15.78
2023-05-14T06:40:25.820Z,15.97
2023-05-14T06:42:39.415Z,16.2
2023-05-14T06:44:52.337Z,16.33
2023-05-14T06:49:15.625Z,16.66
2023-05-14T06:51:27.391Z,16.91
2023-05-14T06:53:41.535Z,17.18
2023-05-14T06:55:55.344Z,17.37
2023-05-14T06:58:07.254Z,17.62
2023-05-14T07:00:21.216Z,17.95
2023-05-14T07:02:36.932Z,18.09
2023-05-14T07:04:51.104Z,18.19
2023-05-14T07:07:04.614Z,18.37
2023-05-14T07:09:20.049Z,18.71
2023-05-14T07:11:34.775Z,18.92
2023-05-14T07:13:50.347Z,19.13
2023-05-14T07:16:02.670Z,19.39
2023-05-14T07:18:15.263Z,19.79
2023-05-14T07:20:32.038Z,19.82
2023-05-14T07:22:43.746Z,19.75
2023-05-14T07:27:22.236Z,19.63
2023-05-14T07:29:36.034Z,19.83
2023-05-14T07:31:50.446Z,20.04
2023-05-14T07:34:05.473Z,20.35
2023-05-14T07:36:19.383Z,20.6
2023-05-14T07:38:35.432Z,20.78
2023-05-14T07:40:48.449Z,20.61
2023-05-14T07:43:07.794Z,20.81
2023-05-14T07:45:26.728Z,20.65
2023-05-14T07:47:38.201Z,20.87
2023-05-14T07:49:49.874Z,20.92
2023-05-14T07:52:01.928Z,21.17
2023-05-14T07:54:11.480Z,21.28
2023-05-14T07:56:33.706Z,21.19
2023-05-14T07:58:47.130Z,21.5
2023-05-14T08:00:58.247Z,21.44
2023-05-14T08:03:08.673Z,21.52
2023-05-14T08:05:20.206Z,21.76
2023-05-14T08:07:33.329Z,22.11
2023-05-14T08:09:45.024Z,21.79
2023-05-14T08:11:59.352Z,21.7
2023-05-14T08:14:16.826Z,22
2023-05-14T08:16:29.960Z,22.16
2023-05-14T08:20:54.273Z,22.63
2023-05-14T08:23:07.098Z,22.73
2023-05-14T08:25:19.098Z,22.38
2023-05-14T08:27:31.311Z,22.53
2023-05-14T08:29:44.419Z,22.38
2023-05-14T08:31:58.228Z,22.22
2023-05-14T08:34:31.157Z,22.97
2023-05-14T08:36:57.299Z,22.9
2023-05-14T08:39:12.213Z,23.31
2023-05-14T08:41:33.497Z,23.71
2023-05-14T08:43:45.418Z,24.45
2023-05-14T08:45:58.472Z,24.18
2023-05-14T08:48:11.167Z,23.86
2023-05-14T08:50:23.816Z,23.58
2023-05-14T08:52:36.982Z,24
2023-05-14T08:54:51.263Z,22.78
2023-05-14T08:57:04.831Z,23.21
2023-05-14T08:59:18.571Z,23.22
2023-05-14T09:01:32.206Z,23.44
2023-05-14T09:03:46.912Z,24.09
2023-05-14T09:06:00.403Z,24.5
2023-05-14T09:08:14.814Z,25.27
2023-05-14T09:10:27.967Z,25.68
2023-05-14T09:12:41.133Z,25.63
2023-05-14T09:14:56.176Z,24.6
2023-05-14T09:17:11.989Z,25.15
2023-05-14T09:19:24.721Z,24.69
2023-05-14T09:21:42.051Z,24.07
2023-05-14T09:23:55.526Z,24.9
2023-05-14T09:26:10.212Z,25.21
2023-05-14T09:28:21.289Z,24.98
2023-05-14T09:30:33.112Z,24.78
2023-05-14T09:32:49.276Z,24.83
2023-05-14T09:35:03.534Z,25.74
2023-05-14T09:37:14.909Z,25.42
2023-05-14T09:39:29.252Z,25.44
2023-05-14T09:41:46.450Z,24.57
2023-05-14T09:43:58.070Z,24.49
2023-05-14T09:46:11.100Z,24.97
2023-05-14T10:20:35.468Z,24.36
2023-05-14T10:22:48.889Z,24.84
2023-05-14T10:25:04.133Z,25.51
2023-05-14T10:27:15.016Z,25.92
2023-05-14T10:29:26.408Z,26.22
2023-05-14T10:31:37.415Z,26.27
2023-05-14T10:33:49.108Z,26.32
2023-05-14T10:35:59.669Z,26.23
2023-05-14T10:38:10.124Z,26.15
2023-05-14T10:40:20.782Z,26.29
2023-05-14T10:42:34.632Z,25.28
2023-05-14T10:44:45.425Z,25.61
2023-05-14T10:46:56.239Z,25.69
2023-05-14T10:49:10.942Z,26.08
2023-05-14T10:51:47.186Z,26.66
2023-05-14T10:53:58.683Z,26.82
2023-05-14T10:56:17.105Z,25.35
2023-05-14T10:58:30.143Z,25.33
2023-05-14T11:00:44.046Z,25.52
2023-05-14T11:02:56.625Z,26.32
2023-05-14T11:05:08.664Z,26.29
2023-05-14T11:07:21.126Z,26.11
2023-05-14T11:09:36.366Z,26.89
2023-05-14T11:11:48.432Z,26.54
2023-05-14T11:14:02.953Z,26.82
2023-05-14T11:16:23.038Z,27.17
2023-05-14T11:18:40.428Z,27.53
2023-05-14T11:20:54.206Z,26.6
2023-05-14T11:23:07.349Z,26.92
2023-05-14T11:25:23.812Z,27.12
2023-05-14T11:27:37.707Z,27.11
2023-05-14T11:29:48.463Z,26.91
2023-05-14T11:32:04.895Z,26.13
2023-05-14T11:34:29.067Z,25.62
2023-05-14T11:36:39.279Z,25.77
2023-05-14T11:38:51.608Z,26.13
2023-05-14T11:41:06.271Z,26.58
2023-05-14T11:43:19.775Z,27.62
2023-05-14T11:45:39.890Z,28.16
2023-05-14T11:47:52.005Z,27.82
2023-05-14T11:50:03.507Z,27.17
2023-05-14T11:52:18.167Z,27.18
2023-05-14T11:54:34.153Z,27.04
2023-05-14T11:56:47.624Z,26.62
2023-05-14T11:58:59.407Z,26.65
2023-05-14T12:01:13.965Z,27.16
2023-05-14T12:03:26.848Z,26.87
2023-05-14T12:05:38.107Z,26.85
2023-05-14T12:07:49.403Z,27.63
2023-05-14T12:10:02.540Z,26.66
2023-05-14T12:12:13.960Z,26.65
2023-05-14T12:14:27.606Z,25.76
2023-05-14T12:16:42.865Z,27.04
2023-05-14T12:18:56.502Z,27.14
2023-05-14T12:21:08.633Z,26.94
2023-05-14T12:23:23.130Z,27.56
2023-05-14T12:25:34.264Z,27.29
2023-05-14T12:27:44.776Z,26.47
2023-05-14T12:29:55.805Z,26.2
2023-05-14T12:32:32.677Z,26.67
2023-05-14T12:34:46.093Z,26.94
2023-05-14T12:36:57.368Z,26.21
2023-05-14T12:39:14.846Z,27
2023-05-14T12:41:35.803Z,26.41
2023-05-14T12:43:49.026Z,25.62
2023-05-14T12:46:01.923Z,25.57
2023-05-14T12:48:16.387Z,25.77
2023-05-14T12:50:32.146Z,26.08
2023-05-14T12:52:43.659Z,25.84
2023-05-14T12:54:56.303Z,25.76
2023-05-14T12:57:09.205Z,26.36
2023-05-14T12:59:22.365Z,26.14
2023-05-14T13:01:38.347Z,26.21
2023-05-14T13:03:52.954Z,27.38
2023-05-14T13:06:05.764Z,27.28
2023-05-14T13:08:17.788Z,26.61
2023-05-14T13:10:32.875Z,26.74
2023-05-14T13:12:56.549Z,26.47
2023-05-14T13:15:10.049Z,27.08
2023-05-14T13:17:20.859Z,26.56
2023-05-14T13:19:31.264Z,26.38
2023-05-14T13:21:42.940Z,26.63
2023-05-14T13:23:55.604Z,27.12
2023-05-14T13:26:11.927Z,27.46
2023-05-14T13:28:24.225Z,27.41
2023-05-14T13:30:38.625Z,26.7
2023-05-14T13:32:52.575Z,26.8
2023-05-14T13:35:07.503Z,26.26
2023-05-14T13:39:35.895Z,26.29
2023-05-14T13:41:55.920Z,26.13
2023-05-14T13:44:12.252Z,25.8
2023-05-14T13:46:26.274Z,26.71
2023-05-14T13:48:38.082Z,26.06
2023-05-14T13:50:50.924Z,26.29
2023-05-14T13:53:01.244Z,26.77
2023-05-14T13:55:12.233Z,26.39
2023-05-14T13:57:26.626Z,26.39
2023-05-14T13:59:37.866Z,26.01
2023-05-14T14:01:49.772Z,25.82
2023-05-14T14:04:03.165Z,25.75
2023-05-14T14:06:14.930Z,26.45
2023-05-14T14:08:37.182Z,26.89
2023-05-14T14:10:51.489Z,26.86
2023-05-14T14:13:08.609Z,26.49
2023-05-14T14:15:22.027Z,26.82
2023-05-14T14:17:38.559Z,26.42
2023-05-14T14:19:55.570Z,26.09
2023-05-14T14:22:10.844Z,25.45
2023-05-14T14:24:33.588Z,25.64
2023-05-14T14:26:58.130Z,25.73
2023-05-14T14:29:09.604Z,26.07
2023-05-14T14:34:28.331Z,25.03
2023-05-14T14:36:43.680Z,25.21
2023-05-14T14:38:57.614Z,24.46
2023-05-14T14:41:09.750Z,23.85
2023-05-14T14:43:21.519Z,23.7
2023-05-14T14:45:35.984Z,23.59
2023-05-14T14:47:53.272Z,23.39
2023-05-14T14:50:08.464Z,23.39
2023-05-14T14:52:26.352Z,23.28
2023-05-14T14:54:38.533Z,23.14
2023-05-14T14:56:53.952Z,22.86
2023-05-14T14:59:05.412Z,22.87
2023-05-14T15:01:18.941Z,22.91
2023-05-14T15:03:34.415Z,22.78
2023-05-14T15:05:48.034Z,22.71
2023-05-14T15:08:01.814Z,22.72
2023-05-14T15:10:12.275Z,22.62
2023-05-14T15:12:30.754Z,22.27
2023-05-14T15:14:54.598Z,22.38
2023-05-14T15:17:06.515Z,22.5
2023-05-14T15:19:19.721Z,22.34
2023-05-14T15:21:32.961Z,22.22
2023-05-14T15:23:45.499Z,22.39
2023-05-14T15:26:00.420Z,22.32
2023-05-14T15:28:15.174Z,22.48
2023-05-14T15:30:28.233Z,22.36
2023-05-14T15:32:41.750Z,22.33
2023-05-14T15:34:54.653Z,22.38
2023-05-14T15:39:50.212Z,22.5
2023-05-14T15:42:11.151Z,22.56
2023-05-14T15:44:25.173Z,22.61
2023-05-14T15:46:39.873Z,23.12
2023-05-14T15:48:52.612Z,23.01
2023-05-14T15:51:04.531Z,22.89
2023-05-14T15:53:19.996Z,23.23
2023-05-14T15:55:36.452Z,23.49
2023-05-14T15:57:52.877Z,23.98
2023-05-14T16:00:09.556Z,24.23
2023-05-14T16:02:24.498Z,24.43
2023-05-14T16:04:40.998Z,25.11
2023-05-14T16:09:20.149Z,24.13
2023-05-14T16:11:32.569Z,23.58
2023-05-14T16:13:52.729Z,23.18
2023-05-14T16:16:03.995Z,23.13
2023-05-14T16:18:18.446Z,22.95
2023-05-14T16:20:33.709Z,22.52
2023-05-14T16:22:46.052Z,22.46
2023-05-14T16:25:01.863Z,22.02
2023-05-14T16:27:15.715Z,21.91
2023-05-14T16:29:41.794Z,21.7
2023-05-14T16:31:54.697Z,21.64
2023-05-14T16:34:07.189Z,21.49
2023-05-14T16:36:22.738Z,21.43
2023-05-14T16:38:48.264Z,21.47
2023-05-14T16:41:20.635Z,21.42
2023-05-14T16:43:35.058Z,21.27
2023-05-14T16:45:54.112Z,21.12
2023-05-14T16:48:17.309Z,20.96
2023-05-14T16:50:33.649Z,20.87
2023-05-14T16:52:45.382Z,20.73
2023-05-14T16:54:57.964Z,20.62
2023-05-14T16:57:10.103Z,20.52
2023-05-14T16:59:26.332Z,20.37
2023-05-14T17:01:47.560Z,20.31
2023-05-14T17:04:03.288Z,20.38
2023-05-14T17:06:15.282Z,20.16
2023-05-14T17:08:27.840Z,20.15
2023-05-14T17:10:40.624Z,20.11
2023-05-14T17:12:56.564Z,19.97
2023-05-14T17:15:09.439Z,19.77
2023-05-14T17:17:26.088Z,19.64
2023-05-14T17:19:41.006Z,19.52
2023-05-14T17:21:55.338Z,19.32
2023-05-14T17:24:12.498Z,19.19
2023-05-14T17:26:26.504Z,19.07
2023-05-14T17:28:39.841Z,19.1
2023-05-14T17:30:53.400Z,18.94
2023-05-14T17:33:12.654Z,18.83
2023-05-14T17:35:39.421Z,18.66
2023-05-14T17:37:58.416Z,18.49
2023-05-14T17:40:12.497Z,18.31
2023-05-14T17:42:30.826Z,18.15
2023-05-14T17:44:43.319Z,18.01
2023-05-14T17:46:55.126Z,17.86
2023-05-14T17:49:08.568Z,17.72
2023-05-14T17:51:24.621Z,17.49
2023-05-14T17:53:37.346Z,17.31
2023-05-14T17:55:51.197Z,17.15
2023-05-14T17:58:08.772Z,16.99
2023-05-14T18:00:24.012Z,16.78
2023-05-14T18:02:36.237Z,16.62
2023-05-14T18:04:50.977Z,16.49
2023-05-14T18:07:04.079Z,16.32
2023-05-14T18:09:15.205Z,16.16
2023-05-14T18:11:28.139Z,16.03
2023-05-14T18:13:41.796Z,15.88
2023-05-14T18:15:55.165Z,15.71
2023-05-14T18:18:07.747Z,15.59
2023-05-14T18:20:20.978Z,15.46
2023-05-14T18:22:33.441Z,15.32
2023-05-14T18:24:46.367Z,15.23
2023-05-14T18:27:02.989Z,15.13
2023-05-14T18:29:17.902Z,15.03
2023-05-14T18:31:30.986Z,14.93
2023-05-14T18:33:46.640Z,14.79
2023-05-14T18:35:59.240Z,14.65
2023-05-14T18:38:13.046Z,14.52
2023-05-14T18:40:28.654Z,14.41
2023-05-14T18:42:42.637Z,14.28
2023-05-14T18:44:56.059Z,14.17
2023-05-14T18:47:11.066Z,14.02
2023-05-14T18:49:24.580Z,13.91
2023-05-14T18:51:39.219Z,13.84
2023-05-14T18:53:54.732Z,13.72
2023-05-14T18:56:08.285Z,13.62
2023-05-14T18:58:23.785Z,13.52
2023-05-14T19:00:36.558Z,13.42
2023-05-14T19:02:57.832Z,13.33
2023-05-14T19:05:13.790Z,13.26
2023-05-14T19:07:26.943Z,13.19
2023-05-14T19:09:41.358Z,13.11
2023-05-14T19:11:56.282Z,13.03
2023-05-14T19:14:10.100Z,12.95
2023-05-14T19:16:22.979Z,12.9
2023-05-14T19:18:35.197Z,12.87
2023-05-14T19:20:51.541Z,12.83
2023-05-14T19:23:05.318Z,12.78
2023-05-14T19:25:19.751Z,12.74
2023-05-14T19:27:35.658Z,12.74
2023-05-14T19:29:49.275Z,12.7
2023-05-14T19:32:02.183Z,12.65
2023-05-14T19:34:20.342Z,12.65
2023-05-14T19:36:33.355Z,12.61
2023-05-14T19:38:46.610Z,12.61
2023-05-14T19:41:00.362Z,12.56
2023-05-14T19:43:12.740Z,12.48
2023-05-14T19:45:26.962Z,12.42
2023-05-14T19:47:39.087Z,12.4
2023-05-14T19:49:56.702Z,12.38
2023-05-14T19:52:11.385Z,12.34
2023-05-14T19:54:34.954Z,12.3
2023-05-14T19:56:51.116Z,12.3
2023-05-14T19:59:05.313Z,12.27
2023-05-14T20:01:19.734Z,12.24
2023-05-14T20:03:39.976Z,12.19
2023-05-14T20:05:52.715Z,12.18
2023-05-14T20:08:05.939Z,12.18
2023-05-14T20:10:18.190Z,12.19
2023-05-14T20:12:34.286Z,12.2
2023-05-14T20:14:48.078Z,12.17
2023-05-14T20:17:05.995Z,12.2
2023-05-14T20:19:18.630Z,12.21
2023-05-14T20:21:35.537Z,12.22
2023-05-14T20:23:49.636Z,12.23
2023-05-14T20:26:02.514Z,12.25
2023-05-14T20:28:15.360Z,12.27
2023-05-14T20:30:34.479Z,12.29
2023-05-14T20:32:46.567Z,12.3
2023-05-14T20:34:59.418Z,12.31
2023-05-14T20:37:13.137Z,12.36
2023-05-14T20:39:26.400Z,12.39
2023-05-14T20:41:40.937Z,12.38
2023-05-14T20:43:53.537Z,12.39
2023-05-14T20:46:05.921Z,12.42
2023-05-14T20:48:18.395Z,12.41
2023-05-14T20:50:30.155Z,12.44
2023-05-14T20:52:44.457Z,12.42
2023-05-14T20:55:01.667Z,12.42
2023-05-14T20:57:16.998Z,12.4
2023-05-14T20:59:29.700Z,12.42
2023-05-14T21:01:45.945Z,12.46
2023-05-14T21:04:00.529Z,12.45
2023-05-14T21:06:14.185Z,12.46
2023-05-14T21:08:29.704Z,12.47
2023-05-14T21:10:43.559Z,12.45
2023-05-14T21:13:00.958Z,12.42
2023-05-14T21:15:14.540Z,12.39
2023-05-14T21:17:30.491Z,12.42
2023-05-14T21:19:44.795Z,12.42
2023-05-14T21:21:58.621Z,12.39
2023-05-14T21:24:12.874Z,12.38
2023-05-14T21:26:24.615Z,12.43
2023-05-14T21:28:36.463Z,12.43
2023-05-14T21:30:47.959Z,12.42
2023-05-14T21:33:01.971Z,12.41
2023-05-14T21:35:14.620Z,12.39
2023-05-14T21:37:27.257Z,12.43
2023-05-14T21:39:38.654Z,12.43
2023-05-14T21:41:50.194Z,12.4
2023-05-14T21:44:03.815Z,12.43
2023-05-14T21:46:15.912Z,12.44
2023-05-14T21:48:28.412Z,12.45
2023-05-14T21:50:40.814Z,12.43
2023-05-14T21:52:52.798Z,12.42
2023-05-14T21:55:06.396Z,12.43
2023-05-14T21:57:17.972Z,12.41
2023-05-14T21:59:32.198Z,12.4
2023-05-14T22:02:05.237Z,12.39
2023-05-14T22:04:19.075Z,12.39
2023-05-14T22:06:34.817Z,12.38
2023-05-14T22:08:47.134Z,12.39
2023-05-14T22:11:03.034Z,12.43
2023-05-14T22:13:15.355Z,12.45
2023-05-14T22:15:25.855Z,12.45
2023-05-14T22:17:36.736Z,12.42
2023-05-14T22:19:48.734Z,12.41
2023-05-14T22:21:59.877Z,12.41
2023-05-14T22:24:16.854Z,12.46
2023-05-14T22:26:31.934Z,12.46
2023-05-14T22:28:45.614Z,12.47
2023-05-14T22:31:01.972Z,12.44
2023-05-14T22:33:15.457Z,12.47
2023-05-14T22:35:27.931Z,12.48
2023-05-14T22:37:39.854Z,12.48
2023-05-14T22:39:50.879Z,12.47
2023-05-14T22:42:01.577Z,12.48
2023-05-14T22:44:12.074Z,12.48
2023-05-14T22:46:24.112Z,12.48
2023-05-14T22:48:37.897Z,12.48
2023-05-14T22:50:51.237Z,12.53
2023-05-14T22:53:05.521Z,12.57
2023-05-14T22:55:18.360Z,12.59
2023-05-14T22:57:30.514Z,12.56
2023-05-14T22:59:45.742Z,12.54
2023-05-14T23:01:57.042Z,12.52
2023-05-14T23:04:09.597Z,12.53
2023-05-14T23:06:22.312Z,12.58
2023-05-14T23:08:33.837Z,12.57
2023-05-14T23:10:47.896Z,12.54
2023-05-14T23:12:58.833Z,12.49
2023-05-14T23:15:11.235Z,12.52
2023-05-14T23:17:22.017Z,12.5
2023-05-14T23:19:32.907Z,12.47
2023-05-14T23:21:44.732Z,12.42
2023-05-14T23:23:54.872Z,12.39
2023-05-14T23:26:05.146Z,12.35
2023-05-14T23:28:16.213Z,12.35
2023-05-14T23:30:25.837Z,12.34
2023-05-14T23:32:36.811Z,12.34
2023-05-14T23:34:48.052Z,12.37
2023-05-14T23:36:58.669Z,12.36
2023-05-14T23:39:09.162Z,12.34
2023-05-14T23:41:21.313Z,12.36
2023-05-14T23:43:32.771Z,12.32
2023-05-14T23:45:43.511Z,12.33
2023-05-14T23:47:54.564Z,12.32
2023-05-14T23:50:05.449Z,12.3
2023-05-14T23:52:15.492Z,12.29
2023-05-14T23:54:26.611Z,12.26
2023-05-14T23:56:36.768Z,12.24
2023-05-14T23:58:47.072Z,12.2
